This is the latest recevied weather packets stored in our database for station/object XE1E-15. If no packets are shown the sender has not sent any weather packets the latest 10 day(s).
| Time | Temp. | Humidity | Pressure | Rain* | Wind** | Luminosity | Snow |
|---|---|---|---|---|---|---|---|
| 1778100529 | 32.22° C | 27% | 1020.8 hPa | - | - | - | - |
| 1778099569 | 33.33° C | 25% | 1021 hPa | - | - | - | - |
| 1778098642 | 34.44° C | 26% | 1021.4 hPa | - | - | - | - |
| 1778098608 | 34.44° C | 26% | 1021.4 hPa | - | - | - | - |
| 1778097648 | 32.78° C | 25% | 1021.7 hPa | - | - | - | - |
| 1778096688 | 31.67° C | 26% | 1021.9 hPa | - | - | - | - |
| 1778095728 | 32.78° C | 25% | 1022.3 hPa | - | - | - | - |
| 1778094767 | 31.11° C | 27% | 1022.5 hPa | - | - | - | - |
| 1778093806 | 31.67° C | 28% | 1022.8 hPa | - | - | - | - |
| 1778092846 | 31.67° C | 27% | 1023.1 hPa | - | - | - | - |
| 1778091886 | 33.33° C | 26% | 1023.2 hPa | - | - | - | - |
| 1778090926 | 34.44° C | 26% | 1023.5 hPa | - | - | - | - |
| 1778089966 | 32.78° C | 27% | 1023.6 hPa | - | - | - | - |
| 1778089006 | 35° C | 26% | 1023.8 hPa | - | - | - | - |
| 1778088046 | 32.78° C | 27% | 1023.8 hPa | - | - | - | - |
| 1778087086 | 35° C | 26% | 1024.1 hPa | - | - | - | - |
| 1778086126 | 35° C | 26% | 1024.1 hPa | - | - | - | - |
| 1778085165 | 33.89° C | 28% | 1024.3 hPa | - | - | - | - |
| 1778084205 | 34.44° C | 28% | 1024.3 hPa | - | - | - | - |
| 1778083245 | 30.56° C | 32% | 1024.3 hPa | - | - | - | - |
| 1778082285 | 31.11° C | 32% | 1024.4 hPa | - | - | - | - |
| 1778081325 | 29.44° C | 33% | 1024.5 hPa | - | - | - | - |
| 1778080365 | 28.89° C | 37% | 1024.5 hPa | - | - | - | - |
| 1778078928 | 26.67° C | 40% | 1024.4 hPa | - | - | - | - |
| 1778077968 | 26.67° C | 40% | 1024.3 hPa | - | - | - | - |
* Rain since midnight (hover to see other rain measurements)
** Current wind speed in m/s (hover to see current wind gust speed)